FLIGHT INFORMATION
United Parcel Service (UPS)

UPS32

At Arrival Gate

KSDF
 PHNL
DATE: 2020-01-18
GATE:  -
GATE DEPARTURE: 10:00
TAKEOFF: 10:08
DATE: 2020-01-18
GATE:  -
LANDING: 19:08
GATE ARRIVAL: 19:12
FLIGHT DATA
Crew: MICHAEL ROTH
Speed: 521 kts Altitude: 38000 ft
Stage Length: 3803 nm
Route: KSDF LEENE ONMEE DOWNS APALO PXV VIH ALS TBC PGS HEC PMD GMN RZS DINTY DUETS DADIE DIALO DUSAC DRAYK DENNS PHNL
Block Time: 9.2 Flight Time: 9
Fuel Used: 199131 LB
TRACK DATA
50000 FT1000 KTAltitudeSpeed
AIRCRAFT INFORMATION
Aircraft Type: B748F
Registration: N613UP
SELCAL:  MSN/LN: 64259 / 1550
Operator: UNITED PARCEL SERVICE (UPS)
Flights: 6 Block Time: 37.5 Flight Time: 35.9
Fuel Used: 858137 LB
  • DEPARTURE INFORMATION
    Date: 2020-01-18
    Airport: KSDF
    Gate:  -
    Gate Departure: 10:00
    Takeoff: 10:08
    ARRIVAL INFORMATION
    Date: 2020-01-18
    Airport: PHNL
    Gate:  -
    Landing: 19:08
    Gate Arrival: 19:12
  • FLIGHT DATA
    Crew: MICHAEL ROTH
    Speed: 521 kts Altitude: 38000 ft
    Stage Length: 2053 nm
    Route: KSDF LEENE ONMEE DOWNS APALO PXV VIH ALS TBC PGS HEC PMD GMN RZS DINTY DUETS DADIE DIALO DUSAC DRAYK DENNS PHNL
    Block Time: 9.2 Flight Time: 9
    Fuel Used: 199131 LB
  • AIRCRAFT INFORMATION
    Aircraft Type: B748F
    Registration: N613UP
    SELCAL:  MSN/LN: 64259 / 1550
    Operator: United Parcel Service (UPS)
    Flights: 6 Block Time: 37.5 Flight Time: 35.9
    Fuel Used: 858137 LB

DATALINK LOG | Newest first | Current as of: 2020-05-27 02:23:55
LABEL ID SEQUENCE CONTENT Dn/Up
QD135319:12 42.6▼ Dn
QC094619:08▼ Dn
2U4607PHNL 190153Z 03013G19KT 10SM FEW042 SCT065 26/14 A3001 RMK AO2 SLP163 T02560139▲ Up
2S4607PHNL▼ Dn
2U2524PHNL 190153Z 03013G19KT 10SM FEW042 SCT065 26/14 A3001 RMK AO2 SLP163 T02560139▲ Up
2S2524PHNL▼ Dn
QB082410:08▼ Dn
QA001410:00 241.7▼ Dn
A31556CLEARED TO PHNL VIA APALO5 APALO PXV VIH ALS TBC J128 PGS HEC PMD GMN RZS DINTY R576 DENNS MAGGI3. SQUAWK 1304.▲ Up
A31507CLEARED TO PHNL VIA APALO5 APALO PXV VIH ALS TBC J128 PGS HEC PMD GMN RZS DINTY R576 DENNS MAGGI3. SQUAWK 7613.▲ Up
2U4921KSDF 111622Z 22011KT 3SM RA BR SCT046 BKN060 OVC095 17/15 A2981 RMK AO2 PK WND 23031/1558 P0017 T01720150▲ Up
2S4921KSDF▼ Dn
Q01349[LINK ACK]▲ Up
Q04851[LINK TEST]▼ Dn


AIRCRAFT HISTORY
FLIGHT DATE FLIGHT NUMBER ORIGIN DESTINATION ROUTE BLOCK TIME FLIGHT TIME FUEL USED (LB) PILOT
2020-05-11UPS6840KIAH KGPI KIAH WLLIS LOA DOLEY FUZ BATIK SPS LAA HGO DVV MBW BIL GTF SKOTT RW023.93.683905Pete Locascio
2020-05-10UPS5826PANC KIAH PANC EGKAJ LIFFE OUTER CRAFT RAMMA NOEND JOH YYD NAAPP CASSL YWL YNY YXC DORSE HLN BOY FQF BGD MQP TORNN REFYN OILLL DPLAN SSTAX MPORT GUSHR RW08L6.36136272Pete Locascio
2020-04-27UPS8821KPHX PANC KPHX SPRKY GOALY QUAKY SNOBL CARTL LOFTS RIMMM GCN WINEN NEERO IMB ARRIE FOCHE PRYCE BKA LAIRE JOH WITTI GAYLL SLOOW SILTY ANDDI WEWWO RW07R5.65.2122641Pete Locascio
2020-04-12UPS5150PHNL KPHX PHNL MKK 22N55 24N45 27N35 29N30 FICKY MZB GWIRE IPL HEEDS BZA HOGGZ KPHX5.55.2104604Pete Locascio
2020-01-18UPS32KSDF PHNL KSDF LEENE ONMEE DOWNS APALO PXV VIH ALS TBC PGS HEC PMD GMN RZS DINTY DUETS DADIE DIALO DUSAC DRAYK DENNS PHNL9.29199131Michael Roth
2020-01-17UPS214EDDK KSDF EDDK DK130 DK141 DK143 DK144 DK145 WYP MISGO SONEB TENLI FLEVO SPY MONIL RAVLO BODSO SUPEL ABTOS OTBED NISBI DOPEK ARTIX MOGMO MAMUL ADELU BOLBI SONEX PENIL BABRA GIGTO UNDUX SOPAX RAMOX OGTUG BAGSO DOGAL 5420N 5530N 5740N 5750N HOIST YYR YRI YQB BUF CVG KSDF10.19.9211584Michael Roth